Terminal Aerodrome Forecast
Issued by NWS Grand Forks, ND

Home | Current Version | Previous Version | Text Only | Print | Product List | Glossary Off
Versions: 1 2 3 4 5 6 7 8 9 10 11 12 13

000
FTUS43 KFGF 022328
TAFFAR
TAF
KFAR 022328Z 0300/0324 33014KT P6SM SCT040
     FM030100 31006KT P6SM SKC
     FM031600 32011KT P6SM FEW050
     FM031800 32015G21KT P6SM SKC=

USA.gov is the U.S. government's official web portal to all federal, state and local government web resources and services.